EDMA/AGB METAR and TAF weather

Enter ICAO airport designator
Station Type Date Time Source
EDMA METAR 2019/04/26 03:50 UTC NOAA

EDMA 260350Z AUTO 28005KT 9999 // NCD 06/04 Q1010


Station Type Date Time Source
EDMA Decoded METAR 2019/04/26 03:50 UTC NOAA

Augsburg, Germany (EDMA) 48-26N 010-56E 463M
Apr 25, 2019 - 11:50 PM EDT / 2019.04.26 0350 UTC
Wind: from the W (280 degrees) at 6 MPH (5 KT):0
Visibility: greater than 7 mile(s):0
Temperature: 42 F (6 C)
Dew Point: 39 F (4 C)
Relative Humidity: 86%
Pressure (altimeter): 29.83 in. Hg (1010 hPa)
ob: EDMA 260350Z AUTO 28005KT 9999 // NCD 06/04 Q1010
cycle: 4

Station Type Date Time Source
EDMA TAF 2010/02/22 13:50 UTC NOAA

METAR EDMA 221350Z 23006KT CAVOK 10/02 Q0996

Example: see airport list